sensor_id;sensor_type;location;lat;lon;timestamp;pressure;altitude;pressure_sealevel;temperature;humidity
28626;BME280;18905;42.668;23.364;2023-05-01T00:00:13;95006.31;;;12.69;100.00
28626;BME280;18905;42.668;23.364;2023-05-01T00:02:38;94996.56;;;12.56;100.00
28626;BME280;18905;42.668;23.364;2023-05-01T00:05:04;95014.50;;;12.61;100.00
28626;BME280;18905;42.668;23.364;2023-05-01T00:07:30;95005.66;;;12.52;100.00
28626;BME280;18905;42.668;23.364;2023-05-01T00:09:56;95047.88;;;12.73;100.00
28626;BME280;18905;42.668;23.364;2023-05-01T00:12:22;95005.22;;;12.29;100.00
28626;BME280;18905;42.668;23.364;2023-05-01T00:14:48;94994.94;;;12.14;100.00
28626;BME280;18905;42.668;23.364;2023-05-01T00:17:14;94996.66;;;11.98;100.00
28626;BME280;18905;42.668;23.364;2023-05-01T00:19:40;94960.22;;;11.75;100.00
28626;BME280;18905;42.668;23.364;2023-05-01T00:22:06;95023.34;;;12.08;100.00
28626;BME280;18905;42.668;23.364;2023-05-01T00:24:32;95055.34;;;12.35;100.00
28626;BME280;18905;42.668;23.364;2023-05-01T00:26:57;95079.78;;;12.47;100.00
28626;BME280;18905;42.668;23.364;2023-05-01T00:29:23;94931.97;;;11.55;100.00
28626;BME280;18905;42.668;23.364;2023-05-01T00:31:49;94928.34;;;11.51;100.00
28626;BME280;18905;42.668;23.364;2023-05-01T00:34:15;94941.22;;;11.54;100.00
28626;BME280;18905;42.668;23.364;2023-05-01T00:36:41;95087.22;;;12.50;100.00
28626;BME280;18905;42.668;23.364;2023-05-01T00:39:06;94939.72;;;11.36;100.00
28626;BME280;18905;42.668;23.364;2023-05-01T00:41:37;94964.41;;;11.55;100.00
28626;BME280;18905;42.668;23.364;2023-05-01T00:44:02;94996.19;;;11.76;100.00
28626;BME280;18905;42.668;23.364;2023-05-01T00:46:29;94971.13;;;11.20;100.00
28626;BME280;18905;42.668;23.364;2023-05-01T00:48:56;95009.34;;;11.39;100.00
28626;BME280;18905;42.668;23.364;2023-05-01T00:51:25;95035.97;;;11.58;100.00
28626;BME280;18905;42.668;23.364;2023-05-01T00:53:57;94981.94;;;11.20;100.00
28626;BME280;18905;42.668;23.364;2023-05-01T00:56:24;95089.50;;;11.90;100.00
28626;BME280;18905;42.668;23.364;2023-05-01T00:58:52;94988.25;;;11.24;100.00
28626;BME280;18905;42.668;23.364;2023-05-01T01:01:22;94993.66;;;11.24;100.00
28626;BME280;18905;42.668;23.364;2023-05-01T01:03:49;94985.25;;;11.17;100.00
28626;BME280;18905;42.668;23.364;2023-05-01T01:09:18;95094.72;;;11.95;100.00
28626;BME280;18905;42.668;23.364;2023-05-01T01:11:56;95045.09;;;11.53;100.00
28626;BME280;18905;42.668;23.364;2023-05-01T01:14:27;94915.53;;;10.48;100.00
28626;BME280;18905;42.668;23.364;2023-05-01T01:22:12;94973.44;;;9.65;100.00
28626;BME280;18905;42.668;23.364;2023-05-01T01:35:56;95054.06;;;9.92;100.00
28626;BME280;18905;42.668;23.364;2023-05-01T01:38:35;94985.53;;;9.29;100.00
28626;BME280;18905;42.668;23.364;2023-05-01T01:41:12;95145.22;;;10.12;100.00
28626;BME280;18905;42.668;23.364;2023-05-01T01:43:45;95025.88;;;9.59;100.00
28626;BME280;18905;42.668;23.364;2023-05-01T01:46:13;95040.63;;;9.62;100.00
28626;BME280;18905;42.668;23.364;2023-05-01T01:48:45;95006.25;;;9.67;100.00
28626;BME280;18905;42.668;23.364;2023-05-01T01:51:14;95048.34;;;9.94;100.00
28626;BME280;18905;42.668;23.364;2023-05-01T01:53:45;95075.88;;;10.13;100.00
28626;BME280;18905;42.668;23.364;2023-05-01T01:56:13;95129.75;;;10.52;100.00
28626;BME280;18905;42.668;23.364;2023-05-01T01:58:43;95026.16;;;9.97;100.00
28626;BME280;18905;42.668;23.364;2023-05-01T02:01:12;95031.31;;;10.15;100.00
28626;BME280;18905;42.668;23.364;2023-05-01T02:03:39;95000.00;;;10.06;100.00
28626;BME280;18905;42.668;23.364;2023-05-01T02:06:06;95067.66;;;10.52;100.00
28626;BME280;18905;42.668;23.364;2023-05-01T02:08:33;95074.81;;;10.56;100.00
28626;BME280;18905;42.668;23.364;2023-05-01T02:11:00;95031.06;;;9.95;100.00
28626;BME280;18905;42.668;23.364;2023-05-01T02:13:28;95077.78;;;9.73;100.00
28626;BME280;18905;42.668;23.364;2023-05-01T02:15:57;95129.59;;;9.92;100.00
28626;BME280;18905;42.668;23.364;2023-05-01T02:18:26;95019.13;;;9.31;100.00
28626;BME280;18905;42.668;23.364;2023-05-01T02:20:54;94983.41;;;9.17;100.00
28626;BME280;18905;42.668;23.364;2023-05-01T02:23:21;94994.03;;;9.14;100.00
28626;BME280;18905;42.668;23.364;2023-05-01T02:25:49;95109.44;;;9.59;100.00
28626;BME280;18905;42.668;23.364;2023-05-01T02:28:20;94975.81;;;8.58;100.00
28626;BME280;18905;42.668;23.364;2023-05-01T02:30:47;95071.91;;;9.02;100.00
28626;BME280;18905;42.668;23.364;2023-05-01T02:33:12;95023.69;;;8.48;100.00
28626;BME280;18905;42.668;23.364;2023-05-01T02:35:40;95099.56;;;9.16;100.00
28626;BME280;18905;42.668;23.364;2023-05-01T02:38:05;95048.78;;;9.01;100.00
28626;BME280;18905;42.668;23.364;2023-05-01T02:40:33;95020.38;;;8.95;100.00
28626;BME280;18905;42.668;23.364;2023-05-01T02:43:01;95052.41;;;9.27;100.00
28626;BME280;18905;42.668;23.364;2023-05-01T02:45:29;94988.91;;;9.04;100.00
28626;BME280;18905;42.668;23.364;2023-05-01T02:47:58;95107.06;;;9.88;100.00
28626;BME280;18905;42.668;23.364;2023-05-01T02:50:25;95054.47;;;9.69;100.00
28626;BME280;18905;42.668;23.364;2023-05-01T02:52:51;95065.78;;;9.88;100.00
28626;BME280;18905;42.668;23.364;2023-05-01T02:55:18;95064.28;;;9.65;100.00
28626;BME280;18905;42.668;23.364;2023-05-01T02:57:43;95042.41;;;9.66;100.00
28626;BME280;18905;42.668;23.364;2023-05-01T03:00:09;95132.88;;;10.28;100.00
28626;BME280;18905;42.668;23.364;2023-05-01T03:02:40;94988.56;;;9.36;100.00
28626;BME280;18905;42.668;23.364;2023-05-01T03:05:06;95055.97;;;9.92;100.00
28626;BME280;18905;42.668;23.364;2023-05-01T03:07:32;95050.34;;;9.32;100.00
28626;BME280;18905;42.668;23.364;2023-05-01T03:10:02;95123.66;;;9.43;100.00
28626;BME280;18905;42.668;23.364;2023-05-01T03:12:29;95101.81;;;9.00;100.00
28626;BME280;18905;42.668;23.364;2023-05-01T03:14:55;95063.53;;;8.81;100.00
28626;BME280;18905;42.668;23.364;2023-05-01T03:17:20;95118.53;;;9.11;100.00
28626;BME280;18905;42.668;23.364;2023-05-01T03:19:47;95073.94;;;8.52;100.00
28626;BME280;18905;42.668;23.364;2023-05-01T03:22:13;95088.78;;;8.50;100.00
28626;BME280;18905;42.668;23.364;2023-05-01T03:24:38;95018.22;;;8.17;100.00
28626;BME280;18905;42.668;23.364;2023-05-01T03:27:04;95077.41;;;8.75;100.00
28626;BME280;18905;42.668;23.364;2023-05-01T03:29:29;95102.03;;;9.04;100.00
28626;BME280;18905;42.668;23.364;2023-05-01T03:31:55;95086.78;;;8.99;100.00
28626;BME280;18905;42.668;23.364;2023-05-01T03:34:22;95068.25;;;8.76;100.00
28626;BME280;18905;42.668;23.364;2023-05-01T03:36:47;95011.78;;;8.40;100.00
28626;BME280;18905;42.668;23.364;2023-05-01T03:39:13;95053.94;;;8.67;100.00
28626;BME280;18905;42.668;23.364;2023-05-01T03:41:38;95173.09;;;9.38;100.00
28626;BME280;18905;42.668;23.364;2023-05-01T03:44:04;95025.50;;;8.52;100.00
28626;BME280;18905;42.668;23.364;2023-05-01T03:46:29;95169.72;;;9.63;100.00
28626;BME280;18905;42.668;23.364;2023-05-01T03:48:55;95065.22;;;8.99;100.00
28626;BME280;18905;42.668;23.364;2023-05-01T03:51:21;95016.03;;;8.85;100.00
28626;BME280;18905;42.668;23.364;2023-05-01T03:53:46;95074.97;;;9.09;100.00
28626;BME280;18905;42.668;23.364;2023-05-01T03:56:12;95180.84;;;9.92;100.00
28626;BME280;18905;42.668;23.364;2023-05-01T03:58:37;95087.41;;;9.57;100.00
28626;BME280;18905;42.668;23.364;2023-05-01T04:01:04;95116.56;;;10.42;100.00
28626;BME280;18905;42.668;23.364;2023-05-01T04:03:29;95143.34;;;12.50;100.00
28626;BME280;18905;42.668;23.364;2023-05-01T04:05:55;95133.84;;;13.91;100.00
28626;BME280;18905;42.668;23.364;2023-05-01T04:08:20;95080.03;;;14.41;100.00
28626;BME280;18905;42.668;23.364;2023-05-01T04:10:46;95030.47;;;14.71;100.00
28626;BME280;18905;42.668;23.364;2023-05-01T04:13:12;95077.75;;;15.34;100.00
28626;BME280;18905;42.668;23.364;2023-05-01T04:15:37;95110.72;;;15.75;100.00
28626;BME280;18905;42.668;23.364;2023-05-01T04:18:03;95127.25;;;15.82;100.00
28626;BME280;18905;42.668;23.364;2023-05-01T04:20:29;95103.03;;;16.24;100.00
28626;BME280;18905;42.668;23.364;2023-05-01T04:22:54;95094.88;;;16.74;100.00
28626;BME280;18905;42.668;23.364;2023-05-01T04:25:19;95173.22;;;17.42;100.00
28626;BME280;18905;42.668;23.364;2023-05-01T04:27:45;95165.53;;;17.67;96.13
28626;BME280;18905;42.668;23.364;2023-05-01T04:30:11;95164.78;;;17.89;94.07
28626;BME280;18905;42.668;23.364;2023-05-01T04:32:36;95128.91;;;17.90;90.30
28626;BME280;18905;42.668;23.364;2023-05-01T04:35:03;95161.84;;;18.39;88.41
28626;BME280;18905;42.668;23.364;2023-05-01T04:37:29;95119.19;;;18.34;83.51
28626;BME280;18905;42.668;23.364;2023-05-01T04:39:54;95155.16;;;18.36;83.53
28626;BME280;18905;42.668;23.364;2023-05-01T04:42:20;95153.56;;;18.35;83.22
28626;BME280;18905;42.668;23.364;2023-05-01T04:44:45;95173.13;;;18.37;83.63
28626;BME280;18905;42.668;23.364;2023-05-01T04:47:12;95171.97;;;18.38;85.24
28626;BME280;18905;42.668;23.364;2023-05-01T04:49:38;95028.50;;;17.61;85.08
28626;BME280;18905;42.668;23.364;2023-05-01T04:52:05;95050.41;;;18.10;79.59
28626;BME280;18905;42.668;23.364;2023-05-01T04:54:32;95044.25;;;17.30;82.28
28626;BME280;18905;42.668;23.364;2023-05-01T04:56:58;95020.41;;;16.35;88.48
28626;BME280;18905;42.668;23.364;2023-05-01T04:59:24;95175.44;;;17.21;91.08
28626;BME280;18905;42.668;23.364;2023-05-01T05:01:49;95188.09;;;17.29;94.07
28626;BME280;18905;42.668;23.364;2023-05-01T05:04:15;95061.72;;;16.06;94.81
28626;BME280;18905;42.668;23.364;2023-05-01T05:06:41;95173.72;;;16.48;96.33
28626;BME280;18905;42.668;23.364;2023-05-01T05:09:06;95108.03;;;16.06;99.83
28626;BME280;18905;42.668;23.364;2023-05-01T05:11:32;95141.16;;;16.39;98.75
28626;BME280;18905;42.668;23.364;2023-05-01T05:13:58;95054.97;;;15.69;99.69
28626;BME280;18905;42.668;23.364;2023-05-01T05:16:25;95111.47;;;16.03;100.00
28626;BME280;18905;42.668;23.364;2023-05-01T05:18:50;95074.94;;;16.04;98.08
28626;BME280;18905;42.668;23.364;2023-05-01T05:21:16;95207.16;;;17.10;96.21
28626;BME280;18905;42.668;23.364;2023-05-01T05:23:42;95083.50;;;16.37;94.30
28626;BME280;18905;42.668;23.364;2023-05-01T05:26:09;95184.97;;;16.77;95.05
28626;BME280;18905;42.668;23.364;2023-05-01T05:28:34;95112.59;;;17.18;90.56
28626;BME280;18905;42.668;23.364;2023-05-01T05:31:00;95166.38;;;17.17;91.62
28626;BME280;18905;42.668;23.364;2023-05-01T05:33:25;95206.84;;;17.84;92.79
28626;BME280;18905;42.668;23.364;2023-05-01T05:35:51;95095.03;;;17.72;88.02
28626;BME280;18905;42.668;23.364;2023-05-01T05:38:17;95061.72;;;17.86;83.30
28626;BME280;18905;42.668;23.364;2023-05-01T05:40:43;95165.78;;;18.90;79.86
28626;BME280;18905;42.668;23.364;2023-05-01T05:43:08;95095.88;;;18.66;79.40
28626;BME280;18905;42.668;23.364;2023-05-01T05:45:35;95170.91;;;19.76;75.61
28626;BME280;18905;42.668;23.364;2023-05-01T05:48:01;95173.31;;;19.81;71.43
28626;BME280;18905;42.668;23.364;2023-05-01T05:50:27;95097.84;;;18.95;73.95
28626;BME280;18905;42.668;23.364;2023-05-01T05:52:53;95088.06;;;18.94;74.49
28626;BME280;18905;42.668;23.364;2023-05-01T05:55:19;95148.13;;;19.69;71.13
28626;BME280;18905;42.668;23.364;2023-05-01T05:57:44;95181.78;;;20.02;69.39
28626;BME280;18905;42.668;23.364;2023-05-01T06:00:10;95082.56;;;18.39;74.33
28626;BME280;18905;42.668;23.364;2023-05-01T06:02:36;95124.44;;;18.95;74.04
28626;BME280;18905;42.668;23.364;2023-05-01T06:05:02;95176.75;;;18.90;74.46
28626;BME280;18905;42.668;23.364;2023-05-01T06:07:27;95191.22;;;18.45;78.73
28626;BME280;18905;42.668;23.364;2023-05-01T06:09:53;95144.22;;;17.95;80.47
28626;BME280;18905;42.668;23.364;2023-05-01T06:12:19;95108.75;;;16.84;86.90
28626;BME280;18905;42.668;23.364;2023-05-01T06:14:45;95085.53;;;16.90;88.86
28626;BME280;18905;42.668;23.364;2023-05-01T06:17:10;95159.28;;;18.30;83.42
28626;BME280;18905;42.668;23.364;2023-05-01T06:19:36;95177.88;;;17.80;84.53
28626;BME280;18905;42.668;23.364;2023-05-01T06:22:01;95105.06;;;17.30;86.10
28626;BME280;18905;42.668;23.364;2023-05-01T06:24:27;95131.81;;;15.78;97.46
28626;BME280;18905;42.668;23.364;2023-05-01T06:26:53;95105.13;;;16.61;94.39
28626;BME280;18905;42.668;23.364;2023-05-01T06:29:18;95073.06;;;17.27;87.80
28626;BME280;18905;42.668;23.364;2023-05-01T06:31:44;95174.94;;;18.11;86.22
28626;BME280;18905;42.668;23.364;2023-05-01T06:34:10;95121.81;;;17.86;87.89
28626;BME280;18905;42.668;23.364;2023-05-01T06:36:35;95152.16;;;18.45;84.99
28626;BME280;18905;42.668;23.364;2023-05-01T06:39:01;95171.56;;;17.76;87.53
28626;BME280;18905;42.668;23.364;2023-05-01T06:41:26;95197.84;;;17.65;92.29
28626;BME280;18905;42.668;23.364;2023-05-01T06:43:52;95181.81;;;18.01;89.62
28626;BME280;18905;42.668;23.364;2023-05-01T06:46:17;95066.50;;;17.51;86.21
28626;BME280;18905;42.668;23.364;2023-05-01T06:48:43;95096.25;;;17.97;84.89
28626;BME280;18905;42.668;23.364;2023-05-01T06:51:08;95155.50;;;18.35;83.66
28626;BME280;18905;42.668;23.364;2023-05-01T06:53:34;95164.50;;;18.16;82.43
28626;BME280;18905;42.668;23.364;2023-05-01T06:56:00;95095.19;;;17.83;84.69
28626;BME280;18905;42.668;23.364;2023-05-01T06:58:26;95194.38;;;18.70;83.33
28626;BME280;18905;42.668;23.364;2023-05-01T07:00:52;95197.59;;;19.83;77.19
28626;BME280;18905;42.668;23.364;2023-05-01T07:03:18;95157.16;;;20.06;73.12
28626;BME280;18905;42.668;23.364;2023-05-01T07:05:44;95146.25;;;20.49;70.92
28626;BME280;18905;42.668;23.364;2023-05-01T07:08:09;95102.78;;;21.06;67.25
28626;BME280;18905;42.668;23.364;2023-05-01T07:10:35;95124.59;;;20.01;65.76
28626;BME280;18905;42.668;23.364;2023-05-01T07:13:01;95239.25;;;19.95;73.06
28626;BME280;18905;42.668;23.364;2023-05-01T07:15:27;95115.91;;;18.74;78.65
28626;BME280;18905;42.668;23.364;2023-05-01T07:17:54;95111.53;;;18.95;76.57
28626;BME280;18905;42.668;23.364;2023-05-01T07:20:20;95157.88;;;19.37;74.76
28626;BME280;18905;42.668;23.364;2023-05-01T07:22:46;95253.00;;;19.17;78.79
28626;BME280;18905;42.668;23.364;2023-05-01T07:25:12;95120.72;;;16.95;88.01
28626;BME280;18905;42.668;23.364;2023-05-01T07:27:38;95158.47;;;17.85;91.14
28626;BME280;18905;42.668;23.364;2023-05-01T07:30:04;95102.59;;;17.41;89.23
28626;BME280;18905;42.668;23.364;2023-05-01T07:32:29;95237.94;;;18.18;93.59
28626;BME280;18905;42.668;23.364;2023-05-01T07:34:57;95233.66;;;18.81;87.63
28626;BME280;18905;42.668;23.364;2023-05-01T07:37:23;95222.09;;;18.46;87.31
28626;BME280;18905;42.668;23.364;2023-05-01T07:39:48;95238.78;;;18.41;90.68
28626;BME280;18905;42.668;23.364;2023-05-01T07:42:13;95190.88;;;18.69;88.25
28626;BME280;18905;42.668;23.364;2023-05-01T07:44:39;95245.09;;;19.12;86.76
28626;BME280;18905;42.668;23.364;2023-05-01T07:47:04;95244.59;;;19.07;87.02
28626;BME280;18905;42.668;23.364;2023-05-01T07:49:37;95249.19;;;18.54;89.54
28626;BME280;18905;42.668;23.364;2023-05-01T07:52:03;95244.56;;;18.58;89.09
28626;BME280;18905;42.668;23.364;2023-05-01T07:54:31;95248.31;;;18.69;90.41
28626;BME280;18905;42.668;23.364;2023-05-01T07:56:56;95198.00;;;18.77;87.26
28626;BME280;18905;42.668;23.364;2023-05-01T07:59:22;95174.25;;;19.07;86.45
28626;BME280;18905;42.668;23.364;2023-05-01T08:01:47;95201.94;;;19.54;80.84
28626;BME280;18905;42.668;23.364;2023-05-01T08:04:13;95252.03;;;19.06;83.92
28626;BME280;18905;42.668;23.364;2023-05-01T08:06:39;95203.75;;;19.43;77.47
28626;BME280;18905;42.668;23.364;2023-05-01T08:09:04;95250.56;;;19.12;83.14
28626;BME280;18905;42.668;23.364;2023-05-01T08:11:30;95192.53;;;18.77;81.23
28626;BME280;18905;42.668;23.364;2023-05-01T08:13:57;95193.56;;;19.73;76.37
28626;BME280;18905;42.668;23.364;2023-05-01T08:16:23;95240.75;;;19.34;79.51
28626;BME280;18905;42.668;23.364;2023-05-01T08:18:48;95196.19;;;19.63;74.25
28626;BME280;18905;42.668;23.364;2023-05-01T08:21:14;95212.13;;;19.54;70.11
28626;BME280;18905;42.668;23.364;2023-05-01T08:23:39;95205.78;;;19.50;68.68
28626;BME280;18905;42.668;23.364;2023-05-01T08:26:04;95183.72;;;20.35;66.48
28626;BME280;18905;42.668;23.364;2023-05-01T08:28:33;95209.09;;;20.61;65.91
28626;BME280;18905;42.668;23.364;2023-05-01T08:30:59;95196.09;;;21.60;60.97
28626;BME280;18905;42.668;23.364;2023-05-01T08:33:24;95225.75;;;21.98;58.70
28626;BME280;18905;42.668;23.364;2023-05-01T08:35:50;95211.56;;;21.78;53.70
28626;BME280;18905;42.668;23.364;2023-05-01T08:38:16;95230.25;;;21.62;54.65
28626;BME280;18905;42.668;23.364;2023-05-01T08:40:46;95226.28;;;22.28;54.91
28626;BME280;18905;42.668;23.364;2023-05-01T08:43:16;95226.09;;;21.82;55.91
28626;BME280;18905;42.668;23.364;2023-05-01T08:45:42;95240.41;;;22.23;55.39
28626;BME280;18905;42.668;23.364;2023-05-01T08:48:09;95206.88;;;21.82;54.50
28626;BME280;18905;42.668;23.364;2023-05-01T08:50:38;95238.47;;;21.55;54.58
28626;BME280;18905;42.668;23.364;2023-05-01T08:53:04;95211.41;;;21.00;57.08
28626;BME280;18905;42.668;23.364;2023-05-01T08:55:31;95201.59;;;21.60;57.70
28626;BME280;18905;42.668;23.364;2023-05-01T08:57:58;95234.69;;;21.20;59.38
28626;BME280;18905;42.668;23.364;2023-05-01T09:00:24;95238.47;;;21.55;56.23
28626;BME280;18905;42.668;23.364;2023-05-01T09:02:50;95231.34;;;22.15;55.46
28626;BME280;18905;42.668;23.364;2023-05-01T09:05:19;95190.63;;;22.70;52.10
28626;BME280;18905;42.668;23.364;2023-05-01T09:07:46;95220.88;;;22.59;52.15
28626;BME280;18905;42.668;23.364;2023-05-01T09:10:13;95207.88;;;22.46;53.23
28626;BME280;18905;42.668;23.364;2023-05-01T09:12:41;95188.94;;;22.34;54.52
28626;BME280;18905;42.668;23.364;2023-05-01T09:15:10;95203.59;;;22.59;52.97
28626;BME280;18905;42.668;23.364;2023-05-01T09:17:35;95212.94;;;21.48;56.53
28626;BME280;18905;42.668;23.364;2023-05-01T09:20:03;95219.75;;;21.71;57.62
28626;BME280;18905;42.668;23.364;2023-05-01T09:22:32;95193.78;;;21.69;57.58
28626;BME280;18905;42.668;23.364;2023-05-01T09:24:58;95200.84;;;21.05;59.12
28626;BME280;18905;42.668;23.364;2023-05-01T09:27:25;95199.66;;;21.64;55.79
28626;BME280;18905;42.668;23.364;2023-05-01T09:29:50;95228.34;;;21.12;55.67
28626;BME280;18905;42.668;23.364;2023-05-01T09:32:17;95219.56;;;21.47;57.85
28626;BME280;18905;42.668;23.364;2023-05-01T09:34:45;95230.19;;;20.57;58.23
28626;BME280;18905;42.668;23.364;2023-05-01T09:37:29;95220.44;;;20.23;63.56
28626;BME280;18905;42.668;23.364;2023-05-01T09:40:11;95224.09;;;20.01;63.70
28626;BME280;18905;42.668;23.364;2023-05-01T09:42:39;95220.44;;;20.23;65.16
28626;BME280;18905;42.668;23.364;2023-05-01T09:45:12;95231.72;;;20.18;62.52
28626;BME280;18905;42.668;23.364;2023-05-01T09:47:46;95223.97;;;20.60;61.08
28626;BME280;18905;42.668;23.364;2023-05-01T09:50:34;95220.19;;;21.19;59.99
28626;BME280;18905;42.668;23.364;2023-05-01T09:53:00;95210.84;;;21.34;58.39
28626;BME280;18905;42.668;23.364;2023-05-01T09:55:26;95210.81;;;21.27;57.68
28626;BME280;18905;42.668;23.364;2023-05-01T09:57:52;95197.66;;;21.61;57.69
28626;BME280;18905;42.668;23.364;2023-05-01T10:00:17;95204.72;;;21.55;56.47
28626;BME280;18905;42.668;23.364;2023-05-01T10:02:47;95190.50;;;21.42;56.91
28626;BME280;18905;42.668;23.364;2023-05-01T10:05:13;95204.44;;;21.70;55.10
28626;BME280;18905;42.668;23.364;2023-05-01T10:07:54;95176.91;;;21.67;54.36
28626;BME280;18905;42.668;23.364;2023-05-01T10:10:21;95201.31;;;21.72;54.73
28626;BME280;18905;42.668;23.364;2023-05-01T10:12:47;95188.78;;;21.17;54.43
28626;BME280;18905;42.668;23.364;2023-05-01T10:15:14;95151.91;;;21.18;56.25
28626;BME280;18905;42.668;23.364;2023-05-01T10:17:41;95200.72;;;22.17;53.47
28626;BME280;18905;42.668;23.364;2023-05-01T10:20:08;95206.66;;;22.33;57.38
28626;BME280;18905;42.668;23.364;2023-05-01T10:22:35;95200.47;;;22.64;54.53
28626;BME280;18905;42.668;23.364;2023-05-01T10:25:01;95189.47;;;22.92;56.04
28626;BME280;18905;42.668;23.364;2023-05-01T10:27:28;95196.53;;;23.35;57.07
28626;BME280;18905;42.668;23.364;2023-05-01T10:29:54;95197.31;;;23.49;52.68
28626;BME280;18905;42.668;23.364;2023-05-01T10:32:20;95180.78;;;23.49;54.20
28626;BME280;18905;42.668;23.364;2023-05-01T10:35:18;95199.31;;;23.31;55.96
28626;BME280;18905;42.668;23.364;2023-05-01T10:38:04;95183.44;;;23.84;56.64
28626;BME280;18905;42.668;23.364;2023-05-01T10:45:44;95197.72;;;23.51;48.25
28626;BME280;18905;42.668;23.364;2023-05-01T10:48:11;95181.59;;;22.90;49.75
28626;BME280;18905;42.668;23.364;2023-05-01T10:51:16;95187.88;;;22.70;49.57
28626;BME280;18905;42.668;23.364;2023-05-01T10:53:43;95187.03;;;22.45;51.24
28626;BME280;18905;42.668;23.364;2023-05-01T10:58:56;95189.19;;;21.80;53.83
28626;BME280;18905;42.668;23.364;2023-05-01T11:01:35;95184.13;;;21.28;55.49
28626;BME280;18905;42.668;23.364;2023-05-01T11:04:49;95189.59;;;20.33;55.58
28626;BME280;18905;42.668;23.364;2023-05-01T11:12:06;95187.38;;;20.89;53.56
28626;BME280;18905;42.668;23.364;2023-05-01T11:22:50;95187.16;;;21.12;50.79
28626;BME280;18905;42.668;23.364;2023-05-01T11:25:27;95178.72;;;20.87;51.17
28626;BME280;18905;42.668;23.364;2023-05-01T11:27:55;95171.44;;;21.06;51.45
28626;BME280;18905;42.668;23.364;2023-05-01T11:30:21;95188.91;;;20.83;51.42
28626;BME280;18905;42.668;23.364;2023-05-01T11:32:47;95190.03;;;20.82;51.73
28626;BME280;18905;42.668;23.364;2023-05-01T11:35:18;95169.50;;;20.62;52.31
28626;BME280;18905;42.668;23.364;2023-05-01T11:37:44;95156.19;;;20.64;50.56
28626;BME280;18905;42.668;23.364;2023-05-01T11:40:24;95178.88;;;21.66;50.33
28626;BME280;18905;42.668;23.364;2023-05-01T11:42:52;95188.56;;;22.32;48.84
28626;BME280;18905;42.668;23.364;2023-05-01T11:45:56;95175.16;;;22.13;47.18
28626;BME280;18905;42.668;23.364;2023-05-01T11:49:13;95188.81;;;21.95;48.73
28626;BME280;18905;42.668;23.364;2023-05-01T11:51:55;95149.19;;;20.70;50.25
28626;BME280;18905;42.668;23.364;2023-05-01T11:54:24;95145.59;;;21.10;50.92
28626;BME280;18905;42.668;23.364;2023-05-01T11:56:59;95150.31;;;21.85;50.33
28626;BME280;18905;42.668;23.364;2023-05-01T11:59:28;95172.78;;;22.11;47.44
28626;BME280;18905;42.668;23.364;2023-05-01T12:01:54;95188.28;;;21.65;48.98
28626;BME280;18905;42.668;23.364;2023-05-01T12:04:24;95194.47;;;21.48;50.20
28626;BME280;18905;42.668;23.364;2023-05-01T12:06:51;95190.38;;;21.89;49.87
28626;BME280;18905;42.668;23.364;2023-05-01T12:09:19;95166.31;;;21.69;47.48
28626;BME280;18905;42.668;23.364;2023-05-01T12:11:47;95177.91;;;21.38;61.71
28626;BME280;18905;42.668;23.364;2023-05-01T12:14:14;95173.97;;;21.32;47.19
28626;BME280;18905;42.668;23.364;2023-05-01T12:16:40;95161.78;;;21.26;47.22
28626;BME280;18905;42.668;23.364;2023-05-01T12:19:07;95218.09;;;21.63;47.40
28626;BME280;18905;42.668;23.364;2023-05-01T12:21:33;95215.78;;;21.08;47.73
28626;BME280;18905;42.668;23.364;2023-05-01T12:24:13;95211.25;;;21.33;47.21
28626;BME280;18905;42.668;23.364;2023-05-01T12:26:40;95195.84;;;21.18;45.43
28626;BME280;18905;42.668;23.364;2023-05-01T12:29:09;95174.63;;;20.67;47.11
28626;BME280;18905;42.668;23.364;2023-05-01T12:31:48;95181.53;;;20.11;48.95
28626;BME280;18905;42.668;23.364;2023-05-01T12:34:14;95192.13;;;20.12;49.18
28626;BME280;18905;42.668;23.364;2023-05-01T12:36:39;95187.78;;;20.08;51.05
28626;BME280;18905;42.668;23.364;2023-05-01T12:39:05;95200.81;;;19.88;53.21
28626;BME280;18905;42.668;23.364;2023-05-01T12:44:25;95212.25;;;19.64;57.24
28626;BME280;18905;42.668;23.364;2023-05-01T12:47:05;95205.34;;;20.40;90.98
28626;BME280;18905;42.668;23.364;2023-05-01T12:49:35;95205.53;;;21.62;73.07
28626;BME280;18905;42.668;23.364;2023-05-01T12:52:03;95096.22;;;20.63;57.81
28626;BME280;18905;42.668;23.364;2023-05-01T12:57:13;95203.38;;;20.80;57.49
28626;BME280;18905;42.668;23.364;2023-05-01T12:59:43;95205.19;;;20.66;55.12
28626;BME280;18905;42.668;23.364;2023-05-01T13:02:11;95134.72;;;20.30;55.86
28626;BME280;18905;42.668;23.364;2023-05-01T13:04:37;95137.22;;;20.45;55.67
28626;BME280;18905;42.668;23.364;2023-05-01T13:07:13;95171.16;;;20.74;54.17
28626;BME280;18905;42.668;23.364;2023-05-01T13:09:50;95191.25;;;20.85;55.47
28626;BME280;18905;42.668;23.364;2023-05-01T13:12:16;95174.59;;;21.04;55.96
28626;BME280;18905;42.668;23.364;2023-05-01T13:14:42;95167.09;;;21.01;56.23
28626;BME280;18905;42.668;23.364;2023-05-01T13:17:09;95208.53;;;20.45;57.06
28626;BME280;18905;42.668;23.364;2023-05-01T13:19:36;95149.50;;;19.52;59.43
28626;BME280;18905;42.668;23.364;2023-05-01T13:22:03;95191.63;;;19.44;60.28
28626;BME280;18905;42.668;23.364;2023-05-01T13:24:42;95170.34;;;19.31;59.59
28626;BME280;18905;42.668;23.364;2023-05-01T13:27:10;95219.00;;;20.03;59.00
28626;BME280;18905;42.668;23.364;2023-05-01T13:29:37;95188.16;;;19.77;57.86
28626;BME280;18905;42.668;23.364;2023-05-01T13:32:03;95194.41;;;19.77;59.22
28626;BME280;18905;42.668;23.364;2023-05-01T13:34:33;95192.94;;;19.83;58.72
28626;BME280;18905;42.668;23.364;2023-05-01T13:37:00;95195.38;;;19.62;60.55